createdAt,value
2019-04-29T00:01:24.640Z,7.27
2019-04-29T00:04:09.199Z,3.60
2019-04-29T00:06:54.067Z,9.90
2019-04-29T00:09:38.791Z,10.97
2019-04-29T00:12:23.644Z,6.50
2019-04-29T00:15:16.560Z,6.27
2019-04-29T00:18:02.864Z,16.80
2019-04-29T00:20:49.255Z,9.13
2019-04-29T00:23:34.121Z,7.03
2019-04-29T00:26:18.644Z,8.70
2019-04-29T00:29:03.495Z,4.27
2019-04-29T00:31:48.280Z,9.03
2019-04-29T00:34:32.763Z,10.07
2019-04-29T00:37:22.743Z,15.00
2019-04-29T00:40:09.365Z,14.90
2019-04-29T00:43:05.200Z,6.03
2019-04-29T00:45:49.892Z,7.43
2019-04-29T00:48:34.432Z,4.20
2019-04-29T00:51:19.125Z,7.30
2019-04-29T00:54:05.705Z,12.80
2019-04-29T00:56:50.326Z,8.30
2019-04-29T00:59:35.120Z,5.77
2019-04-29T01:02:20.428Z,8.60
2019-04-29T01:05:05.211Z,7.47
2019-04-29T01:07:50.264Z,12.97
2019-04-29T01:10:34.967Z,7.30
2019-04-29T01:13:11.004Z,8.20
2019-04-29T01:15:55.481Z,8.37
2019-04-29T01:18:40.119Z,10.37
2019-04-29T01:21:24.774Z,7.50
2019-04-29T01:24:09.216Z,5.37
2019-04-29T01:26:55.904Z,9.13
2019-04-29T01:29:40.904Z,8.63
2019-04-29T01:32:25.623Z,6.63
2019-04-29T01:35:10.524Z,10.47
2019-04-29T01:37:55.007Z,8.80
2019-04-29T01:40:53.980Z,8.87
2019-04-29T01:43:40.627Z,7.50
2019-04-29T01:46:25.300Z,7.57
2019-04-29T01:49:09.949Z,8.27
2019-04-29T01:51:54.341Z,17.43
2019-04-29T01:54:39.044Z,12.20
2019-04-29T01:57:23.663Z,8.07
2019-04-29T02:00:12.291Z,9.43
2019-04-29T02:02:56.765Z,15.40
2019-04-29T02:05:41.268Z,14.33
2019-04-29T02:08:26.080Z,10.90
2019-04-29T02:11:10.488Z,7.70
2019-04-29T02:13:54.863Z,6.97
2019-04-29T02:16:39.602Z,10.40
2019-04-29T02:19:24.480Z,8.27
2019-04-29T02:22:14.201Z,9.70
2019-04-29T02:25:01.934Z,13.33
2019-04-29T02:27:46.784Z,8.80
2019-04-29T02:30:31.434Z,15.40
2019-04-29T02:33:16.172Z,8.97
2019-04-29T02:36:00.863Z,6.63
2019-04-29T02:39:04.417Z,16.00
2019-04-29T02:42:07.705Z,10.40
2019-04-29T02:44:53.015Z,35.30
2019-04-29T02:47:37.398Z,72.70
2019-04-29T02:50:22.058Z,43.83
2019-04-29T02:53:06.493Z,26.93
2019-04-29T02:55:53.197Z,27.10
2019-04-29T02:58:45.777Z,24.37
2019-04-29T03:01:32.446Z,25.70
2019-04-29T03:04:21.987Z,32.05
2019-04-29T03:07:06.506Z,25.93
2019-04-29T03:09:51.279Z,22.60
2019-04-29T03:12:36.097Z,20.53
2019-04-29T03:15:21.250Z,92.10
2019-04-29T03:18:05.845Z,36.83
2019-04-29T03:20:52.624Z,33.13
2019-04-29T03:23:37.284Z,36.47
2019-04-29T03:26:21.834Z,46.43
2019-04-29T03:29:08.477Z,64.37
2019-04-29T03:31:53.411Z,29.30
2019-04-29T03:34:38.194Z,48.07
2019-04-29T03:37:22.885Z,37.63
2019-04-29T03:40:07.738Z,40.70
2019-04-29T03:42:52.151Z,61.17
2019-04-29T03:45:37.149Z,64.93
2019-04-29T03:48:21.746Z,90.80
2019-04-29T03:51:06.677Z,23.23
2019-04-29T03:53:51.363Z,25.83
2019-04-29T03:56:36.177Z,40.87
2019-04-29T03:59:20.884Z,276.53
2019-04-29T04:02:10.520Z,71.37
2019-04-29T04:05:01.104Z,36.87
2019-04-29T04:07:47.931Z,33.63
2019-04-29T04:10:32.647Z,45.10
2019-04-29T04:13:17.423Z,99.17
2019-04-29T04:16:02.872Z,131.50
2019-04-29T04:18:47.568Z,140.50
2019-04-29T04:21:32.413Z,40.33
2019-04-29T04:24:17.143Z,49.10
2019-04-29T04:27:02.103Z,34.17
2019-04-29T04:29:46.829Z,50.33
2019-04-29T04:32:31.421Z,69.77
2019-04-29T04:35:16.147Z,39.33
2019-04-29T04:38:00.920Z,41.13
2019-04-29T04:43:38.118Z,52.00
2019-04-29T04:46:23.044Z,24.73
2019-04-29T04:49:07.915Z,37.40
2019-04-29T04:51:52.616Z,54.87
2019-04-29T04:54:37.540Z,85.83
2019-04-29T04:57:22.057Z,229.40
2019-04-29T05:00:08.764Z,113.90
2019-04-29T05:02:53.227Z,75.33
2019-04-29T05:05:37.968Z,89.23
2019-04-29T05:08:39.113Z,101.40
2019-04-29T05:11:23.939Z,61.33
2019-04-29T05:14:08.848Z,37.10
2019-04-29T05:16:53.484Z,58.63
2019-04-29T05:19:38.653Z,44.77
2019-04-29T05:22:23.275Z,50.90
2019-04-29T05:25:08.076Z,37.13
2019-04-29T05:27:52.844Z,72.90
2019-04-29T05:30:37.556Z,228.23
2019-04-29T05:33:22.020Z,228.73
2019-04-29T05:36:23.981Z,72.63
2019-04-29T05:39:20.052Z,103.33
2019-04-29T05:42:07.718Z,280.07
2019-04-29T05:45:11.547Z,80.87
2019-04-29T05:47:58.648Z,153.53
2019-04-29T05:50:52.128Z,208.27
2019-04-29T05:53:39.819Z,177.63
2019-04-29T05:56:24.543Z,164.97
2019-04-29T05:59:12.831Z,50.57
2019-04-29T06:01:55.901Z,144.53
2019-04-29T06:04:40.660Z,31.03
2019-04-29T06:07:26.955Z,44.67
2019-04-29T06:10:11.658Z,38.47
2019-04-29T06:12:56.104Z,184.47
2019-04-29T06:15:40.820Z,24.83
2019-04-29T06:18:25.553Z,47.87
2019-04-29T06:21:09.999Z,23.00
2019-04-29T06:23:54.853Z,33.77
2019-04-29T06:26:43.648Z,64.33
2019-04-29T06:29:27.914Z,31.53
2019-04-29T06:32:12.560Z,31.53
2019-04-29T06:34:57.270Z,20.27
2019-04-29T06:37:41.952Z,68.77
2019-04-29T06:40:30.572Z,30.33
2019-04-29T06:43:13.663Z,35.67
2019-04-29T06:45:58.412Z,23.40
2019-04-29T06:48:43.115Z,32.87
2019-04-29T06:51:27.538Z,30.00
2019-04-29T06:54:12.208Z,38.90
2019-04-29T06:56:56.969Z,36.33
2019-04-29T06:59:42.885Z,29.97
2019-04-29T07:02:28.281Z,18.97
2019-04-29T07:05:16.292Z,28.43
2019-04-29T07:08:00.734Z,34.97
2019-04-29T07:10:45.544Z,32.33
2019-04-29T07:13:29.979Z,30.13
2019-04-29T07:16:16.997Z,26.97
2019-04-29T07:19:01.317Z,27.20
2019-04-29T07:21:47.047Z,25.97
2019-04-29T07:24:32.739Z,27.47
2019-04-29T07:27:17.493Z,19.97
2019-04-29T07:30:06.685Z,85.80
2019-04-29T07:32:48.979Z,55.23
2019-04-29T07:35:33.840Z,47.98
2019-04-29T07:38:18.511Z,31.70
2019-04-29T07:41:03.295Z,24.87
2019-04-29T07:43:48.020Z,29.27
2019-04-29T07:46:34.699Z,22.53
2019-04-29T07:49:21.144Z,23.40
2019-04-29T07:52:09.744Z,21.90
2019-04-29T07:54:56.123Z,20.93
2019-04-29T07:57:40.775Z,22.90
2019-04-29T08:00:25.556Z,22.83
2019-04-29T08:03:10.874Z,20.63
2019-04-29T08:05:55.596Z,24.23
2019-04-29T08:08:40.004Z,21.83
2019-04-29T08:11:24.645Z,21.37
2019-04-29T08:14:09.308Z,21.60
2019-04-29T08:16:54.009Z,24.23
2019-04-29T08:22:22.796Z,24.30
2019-04-29T08:25:07.626Z,23.87
2019-04-29T08:27:52.367Z,20.80
2019-04-29T08:30:37.069Z,23.30
2019-04-29T08:33:21.924Z,19.00
2019-04-29T08:36:06.567Z,19.83
2019-04-29T08:38:51.266Z,27.83
2019-04-29T08:41:36.004Z,22.20
2019-04-29T08:44:28.772Z,24.17
2019-04-29T08:47:18.367Z,23.60
2019-04-29T08:50:02.972Z,22.90
2019-04-29T08:52:47.435Z,23.77
2019-04-29T08:55:36.118Z,23.07
2019-04-29T08:58:18.779Z,23.67
2019-04-29T09:01:03.677Z,26.47
2019-04-29T09:03:48.604Z,20.00
2019-04-29T09:06:33.997Z,21.40
2019-04-29T09:09:28.422Z,24.23
2019-04-29T09:12:05.612Z,21.80
2019-04-29T09:14:51.376Z,25.53
2019-04-29T09:17:35.937Z,25.23
2019-04-29T09:20:20.557Z,28.70
2019-04-29T09:23:10.144Z,26.73
2019-04-29T09:26:03.323Z,26.83
2019-04-29T09:28:49.979Z,22.50
2019-04-29T09:31:34.724Z,16.13
2019-04-29T09:34:24.543Z,18.73
2019-04-29T09:37:06.285Z,20.27
2019-04-29T09:39:50.977Z,17.33
2019-04-29T09:42:56.998Z,18.53
2019-04-29T09:45:46.135Z,14.37
2019-04-29T09:48:30.619Z,27.97
2019-04-29T09:51:17.770Z,27.50
2019-04-29T09:54:01.675Z,32.00
2019-04-29T09:56:46.453Z,26.03
2019-04-29T09:59:33.028Z,23.17
2019-04-29T10:02:36.139Z,22.47
2019-04-29T10:05:25.789Z,16.20
2019-04-29T10:08:10.552Z,18.90
2019-04-29T10:10:54.971Z,16.40
2019-04-29T10:13:39.580Z,21.23
2019-04-29T10:16:13.787Z,17.25
2019-04-29T10:18:41.996Z,19.30
2019-04-29T10:21:10.160Z,14.77
2019-04-29T10:23:36.551Z,12.33
2019-04-29T10:26:02.833Z,13.17
2019-04-29T10:28:29.133Z,14.57
2019-04-29T10:30:55.396Z,14.37
2019-04-29T10:33:23.175Z,10.87
2019-04-29T10:35:49.583Z,13.40
2019-04-29T10:38:15.871Z,11.10
2019-04-29T10:40:44.101Z,8.70
2019-04-29T10:43:29.211Z,9.00
2019-04-29T10:46:06.459Z,6.43
2019-04-29T10:48:37.698Z,8.90
2019-04-29T10:51:05.883Z,8.30
2019-04-29T10:53:32.188Z,3.73
2019-04-29T10:56:00.922Z,5.93
2019-04-29T10:58:31.124Z,5.10
2019-04-29T11:01:12.313Z,6.73
2019-04-29T11:03:38.712Z,5.43
2019-04-29T11:06:23.600Z,2.30
2019-04-29T11:09:14.519Z,3.23
2019-04-29T11:11:59.425Z,3.63
2019-04-29T11:14:44.117Z,2.47
2019-04-29T11:17:28.938Z,4.10
2019-04-29T11:20:15.795Z,3.60
2019-04-29T11:23:04.607Z,2.07
2019-04-29T11:26:03.405Z,5.23
2019-04-29T11:28:51.207Z,2.63
2019-04-29T11:31:36.744Z,2.27
2019-04-29T11:34:33.433Z,3.13
2019-04-29T11:37:19.518Z,1.43
2019-04-29T11:40:04.837Z,2.17
2019-04-29T11:42:49.388Z,2.00
2019-04-29T11:45:38.678Z,1.97
2019-04-29T11:48:21.105Z,2.50
2019-04-29T11:51:19.860Z,5.57
2019-04-29T11:54:08.255Z,2.23
2019-04-29T11:56:51.018Z,2.07
2019-04-29T11:59:37.865Z,4.63
2019-04-29T12:02:44.489Z,2.77
2019-04-29T12:05:22.260Z,4.57
2019-04-29T12:08:11.872Z,2.63
2019-04-29T12:11:06.552Z,2.43
2019-04-29T12:13:35.334Z,4.60
2019-04-29T12:16:24.609Z,12.10
2019-04-29T12:19:28.872Z,4.80
2019-04-29T12:22:26.954Z,2.03
2019-04-29T12:24:59.742Z,3.17
2019-04-29T12:27:44.668Z,2.43
2019-04-29T12:30:34.588Z,2.60
2019-04-29T12:33:22.384Z,2.63
2019-04-29T12:36:09.022Z,4.57
2019-04-29T12:39:12.728Z,2.57
2019-04-29T12:42:14.709Z,2.97
2019-04-29T12:45:18.950Z,2.10
2019-04-29T12:47:53.928Z,5.87
2019-04-29T12:50:38.962Z,1.63
2019-04-29T12:53:23.651Z,2.93
2019-04-29T12:56:11.314Z,7.80
2019-04-29T12:58:59.421Z,3.40
2019-04-29T13:01:57.972Z,1.97
2019-04-29T13:04:49.998Z,2.53
2019-04-29T13:07:36.011Z,2.40
2019-04-29T13:10:22.300Z,2.07
2019-04-29T13:13:06.985Z,4.57
2019-04-29T13:16:10.620Z,4.43
2019-04-29T13:19:11.893Z,1.13
2019-04-29T13:21:53.016Z,3.00
2019-04-29T13:24:38.565Z,2.03
2019-04-29T13:27:25.304Z,3.00
2019-04-29T13:30:16.045Z,2.87
2019-04-29T13:33:01.124Z,3.93
2019-04-29T13:35:48.442Z,4.63
2019-04-29T13:38:32.140Z,3.33
2019-04-29T13:41:23.417Z,3.27
2019-04-29T13:44:05.786Z,3.40
2019-04-29T13:46:53.978Z,2.27
2019-04-29T13:49:40.614Z,3.33
2019-04-29T13:52:25.196Z,3.58
2019-04-29T13:55:17.648Z,2.17
2019-04-29T13:57:56.253Z,6.50
2019-04-29T14:00:49.106Z,2.37
2019-04-29T14:03:35.573Z,2.53
2019-04-29T14:06:20.205Z,5.50
2019-04-29T14:09:05.601Z,2.80
2019-04-29T14:12:01.013Z,2.17
2019-04-29T14:14:36.571Z,1.97
2019-04-29T14:17:26.435Z,4.30
2019-04-29T14:20:10.805Z,3.03
2019-04-29T14:22:54.672Z,3.93
2019-04-29T14:25:39.499Z,2.27
2019-04-29T14:28:24.020Z,5.77
2019-04-29T14:31:08.952Z,3.07
2019-04-29T14:33:55.811Z,2.83
2019-04-29T14:36:41.836Z,5.13
2019-04-29T14:39:36.773Z,3.77
2019-04-29T14:42:14.769Z,1.50
2019-04-29T14:45:04.477Z,1.93
2019-04-29T14:48:01.904Z,2.03
2019-04-29T14:50:49.470Z,3.23
2019-04-29T14:53:34.648Z,3.83
2019-04-29T14:56:20.466Z,2.17
2019-04-29T14:59:07.314Z,1.83
2019-04-29T15:01:59.527Z,3.23
2019-04-29T15:07:50.346Z,1.92
2019-04-29T15:10:36.923Z,3.60
2019-04-29T15:13:23.914Z,5.80
2019-04-29T15:16:15.211Z,2.97
2019-04-29T15:19:03.312Z,2.70
2019-04-29T15:21:50.425Z,3.87
2019-04-29T15:24:35.078Z,2.90
2019-04-29T15:27:21.125Z,5.40
2019-04-29T15:30:01.201Z,1.73
2019-04-29T15:32:45.768Z,3.72
2019-04-29T15:35:30.496Z,2.67
2019-04-29T15:38:15.336Z,1.90
2019-04-29T15:40:59.949Z,2.07
2019-04-29T15:43:47.949Z,2.70
2019-04-29T15:46:45.551Z,1.73
2019-04-29T15:49:20.198Z,2.30
2019-04-29T15:52:04.422Z,2.23
2019-04-29T15:54:51.046Z,1.90
2019-04-29T15:57:36.109Z,5.83
2019-04-29T16:00:22.879Z,2.33
2019-04-29T16:03:07.499Z,3.03
2019-04-29T16:06:21.143Z,1.73
2019-04-29T16:08:59.259Z,2.33
2019-04-29T16:11:52.226Z,3.57
2019-04-29T16:14:37.015Z,3.77
2019-04-29T16:17:21.859Z,6.87
2019-04-29T16:20:06.323Z,2.43
2019-04-29T16:22:54.226Z,3.83
2019-04-29T16:25:40.863Z,3.30
2019-04-29T16:28:31.367Z,3.60
2019-04-29T16:31:14.260Z,3.17
2019-04-29T16:33:58.499Z,3.10
2019-04-29T16:36:43.676Z,2.23
2019-04-29T16:39:30.031Z,4.30
2019-04-29T16:42:22.560Z,3.30
2019-04-29T16:45:12.633Z,5.17
2019-04-29T16:47:53.928Z,3.60
2019-04-29T16:50:38.356Z,5.93
2019-04-29T16:53:22.937Z,2.43
2019-04-29T16:56:07.625Z,3.50
2019-04-29T16:58:52.362Z,3.33
2019-04-29T17:01:37.454Z,1.93
2019-04-29T17:04:22.272Z,2.57
2019-04-29T17:10:02.068Z,5.37
2019-04-29T17:12:48.568Z,4.50
2019-04-29T17:15:33.132Z,3.67
2019-04-29T17:18:18.056Z,1.93
2019-04-29T17:21:07.068Z,3.30
2019-04-29T17:23:49.561Z,4.17
2019-04-29T17:26:38.992Z,4.77
2019-04-29T17:29:39.099Z,2.57
2019-04-29T17:32:17.136Z,5.70
2019-04-29T17:35:03.034Z,2.63
2019-04-29T17:35:14.558Z,6.47
2019-04-29T17:37:48.180Z,2.20
2019-04-29T17:40:33.724Z,7.77
2019-04-29T17:43:38.399Z,2.77
2019-04-29T17:46:34.822Z,2.87
2019-04-29T17:49:29.526Z,2.47
2019-04-29T17:52:15.829Z,2.20
2019-04-29T17:55:06.229Z,2.47
2019-04-29T17:57:52.740Z,3.10
2019-04-29T18:00:44.480Z,6.73
2019-04-29T18:03:34.806Z,4.47
2019-04-29T18:06:24.318Z,6.60
2019-04-29T18:09:28.906Z,5.63
2019-04-29T18:12:15.717Z,5.27
2019-04-29T18:15:00.455Z,5.80
2019-04-29T18:17:45.464Z,6.57
2019-04-29T18:20:36.763Z,6.17
2019-04-29T18:23:40.089Z,4.00
2019-04-29T18:26:26.451Z,8.47
2019-04-29T18:29:11.196Z,7.57
2019-04-29T18:31:55.874Z,4.20
2019-04-29T18:34:40.450Z,5.13
2019-04-29T18:37:25.050Z,5.60
2019-04-29T18:40:09.788Z,4.60
2019-04-29T18:42:55.412Z,5.67
2019-04-29T18:45:40.096Z,6.23
2019-04-29T18:48:27.951Z,6.03
2019-04-29T18:51:12.491Z,22.53
2019-04-29T18:53:57.048Z,12.80
2019-04-29T18:56:41.770Z,10.30
2019-04-29T18:59:33.501Z,10.00
2019-04-29T19:02:14.579Z,9.43
2019-04-29T19:05:01.380Z,8.83
2019-04-29T19:07:54.652Z,10.20
2019-04-29T19:10:34.939Z,4.90
2019-04-29T19:13:20.687Z,5.30
2019-04-29T19:16:10.430Z,6.00
2019-04-29T19:18:57.722Z,5.17
2019-04-29T19:21:39.787Z,3.77
2019-04-29T19:24:24.584Z,8.13
2019-04-29T19:27:10.828Z,5.47
2019-04-29T19:29:57.003Z,6.07
2019-04-29T19:32:44.372Z,6.47
2019-04-29T19:35:29.459Z,6.43
2019-04-29T19:38:15.795Z,6.27
2019-04-29T19:41:02.220Z,4.33
2019-04-29T19:43:48.256Z,6.27
2019-04-29T19:46:38.469Z,7.10
2019-04-29T19:49:21.100Z,4.77
2019-04-29T19:52:05.751Z,5.93
2019-04-29T19:54:50.888Z,4.57
2019-04-29T19:57:42.214Z,7.37
2019-04-29T20:00:28.467Z,6.50
2019-04-29T20:03:22.845Z,6.50
2019-04-29T20:06:21.303Z,6.23
2019-04-29T20:09:01.778Z,5.43
2019-04-29T20:11:45.886Z,4.63
2019-04-29T20:14:33.606Z,6.80
2019-04-29T20:17:32.150Z,5.42
2019-04-29T20:20:25.429Z,4.03
2019-04-29T20:23:10.298Z,4.10
2019-04-29T20:26:05.516Z,15.80
2019-04-29T20:28:42.053Z,4.43
2019-04-29T20:31:27.112Z,7.20
2019-04-29T20:34:12.260Z,5.40
2019-04-29T20:36:57.435Z,5.60
2019-04-29T20:39:45.418Z,6.27
2019-04-29T20:42:30.048Z,10.30
2019-04-29T20:51:57.827Z,5.57
2019-04-29T20:54:42.839Z,9.47
2019-04-29T20:57:27.901Z,9.57
2019-04-29T21:00:13.347Z,7.07
2019-04-29T21:02:58.238Z,7.57
2019-04-29T21:05:49.630Z,7.03
2019-04-29T21:08:29.667Z,6.43
2019-04-29T21:11:21.007Z,6.60
2019-04-29T21:14:10.792Z,7.87
2019-04-29T21:16:57.557Z,8.13
2019-04-29T21:19:42.041Z,6.57
2019-04-29T21:22:26.817Z,8.47
2019-04-29T21:25:11.580Z,8.43
2019-04-29T21:28:00.729Z,8.93
2019-04-29T21:30:42.853Z,8.30
2019-04-29T21:33:27.288Z,7.27
2019-04-29T21:36:15.423Z,10.47
2019-04-29T21:39:06.172Z,10.60
2019-04-29T21:41:58.733Z,7.07
2019-04-29T21:44:42.849Z,7.00
2019-04-29T21:47:29.445Z,9.00
2019-04-29T21:50:15.183Z,12.47
2019-04-29T21:53:02.046Z,7.93
2019-04-29T21:55:46.446Z,9.45
2019-04-29T21:58:33.051Z,8.00
2019-04-29T22:01:18.018Z,6.83
2019-04-29T22:04:03.320Z,7.33
2019-04-29T22:06:48.116Z,8.83
2019-04-29T22:09:35.980Z,7.73
2019-04-29T22:12:21.461Z,8.00
2019-04-29T22:15:06.343Z,7.63
2019-04-29T22:17:56.569Z,8.50
2019-04-29T22:20:42.283Z,11.43
2019-04-29T22:23:25.273Z,10.73
2019-04-29T22:26:10.822Z,8.47
2019-04-29T22:29:01.603Z,7.87
2019-04-29T22:31:42.096Z,8.37
2019-04-29T22:34:26.983Z,8.47
2019-04-29T22:37:11.644Z,10.83
2019-04-29T22:39:58.702Z,10.07
2019-04-29T22:42:51.181Z,10.40
2019-04-29T22:45:35.940Z,11.37
2019-04-29T22:48:20.759Z,10.10
2019-04-29T22:51:05.860Z,11.90
2019-04-29T22:53:50.844Z,13.87
2019-04-29T22:56:36.177Z,10.50
2019-04-29T22:59:20.943Z,9.80
2019-04-29T23:02:05.798Z,13.90
2019-04-29T23:04:53.800Z,11.00
2019-04-29T23:07:37.791Z,14.25
2019-04-29T23:10:26.586Z,10.93
2019-04-29T23:13:09.215Z,12.30
2019-04-29T23:15:58.545Z,11.43
2019-04-29T23:18:42.325Z,13.57
2019-04-29T23:21:45.407Z,9.43
2019-04-29T23:24:32.494Z,8.60
2019-04-29T23:27:19.637Z,12.07
2019-04-29T23:30:03.888Z,13.43
2019-04-29T23:32:48.673Z,11.88
2019-04-29T23:35:34.966Z,11.43
2019-04-29T23:38:20.402Z,11.47
2019-04-29T23:41:07.001Z,9.90
2019-04-29T23:43:51.763Z,12.90
2019-04-29T23:46:36.615Z,13.83
2019-04-29T23:49:21.263Z,12.30
2019-04-29T23:52:06.810Z,11.97
2019-04-29T23:54:52.446Z,15.17
2019-04-29T23:57:38.975Z,10.70
